createdAt,value
2024-01-20T00:04:09.061Z,-1.82
2024-01-20T00:09:14.940Z,-1.79
2024-01-20T00:14:17.065Z,-1.78
2024-01-20T00:19:19.965Z,-1.76
2024-01-20T00:24:22.134Z,-1.72
2024-01-20T00:29:24.242Z,-1.68
2024-01-20T00:34:26.413Z,-1.68
2024-01-20T00:39:28.346Z,-1.68
2024-01-20T00:44:30.287Z,-1.65
2024-01-20T00:49:32.286Z,-1.66
2024-01-20T00:54:34.262Z,-1.64
2024-01-20T00:59:36.252Z,-1.62
2024-01-20T01:04:38.166Z,-1.64
2024-01-20T01:09:40.124Z,-1.69
2024-01-20T01:14:42.035Z,-1.76
2024-01-20T01:19:44.753Z,-1.86
2024-01-20T01:24:46.806Z,-2.01
2024-01-20T01:29:48.757Z,-2.18
2024-01-20T01:34:50.617Z,-2.36
2024-01-20T01:39:52.568Z,-2.55
2024-01-20T01:44:55.840Z,-2.69
2024-01-20T01:49:58.035Z,-2.78
2024-01-20T01:55:00.540Z,-2.84
2024-01-20T02:00:05.726Z,-2.92
2024-01-20T02:05:07.822Z,-3.03
2024-01-20T02:10:12.089Z,-3.11
2024-01-20T02:15:15.854Z,-3.15
2024-01-20T02:20:18.026Z,-3.19
2024-01-20T02:25:20.267Z,-3.25
2024-01-20T02:30:22.528Z,-3.29
2024-01-20T02:35:24.451Z,-3.31
2024-01-20T02:40:27.760Z,-3.35
2024-01-20T02:45:29.770Z,-3.38
2024-01-20T02:50:32.465Z,-3.39
2024-01-20T02:55:34.453Z,-3.43
2024-01-20T03:00:36.544Z,-3.48
2024-01-20T03:05:38.574Z,-3.49
2024-01-20T03:10:40.526Z,-3.50
2024-01-20T03:15:42.616Z,-3.54
2024-01-20T03:20:45.177Z,-3.57
2024-01-20T03:25:47.106Z,-3.60
2024-01-20T03:30:49.198Z,-3.66
2024-01-20T03:35:51.193Z,-3.71
2024-01-20T03:40:53.296Z,-3.74
2024-01-20T03:45:56.821Z,-3.77
2024-01-20T03:50:58.908Z,-3.82
2024-01-20T03:56:02.666Z,-3.86
2024-01-20T04:01:04.951Z,-3.91
2024-01-20T04:06:07.135Z,-3.95
2024-01-20T04:11:09.125Z,-3.97
2024-01-20T04:16:11.198Z,-3.98
2024-01-20T04:21:13.103Z,-4.00
2024-01-20T04:26:14.974Z,-3.98
2024-01-20T04:31:16.942Z,-3.96
2024-01-20T04:36:18.790Z,-3.94
2024-01-20T04:41:21.004Z,-3.91
2024-01-20T04:46:23.135Z,-3.86
2024-01-20T04:51:25.557Z,-3.84
2024-01-20T04:56:27.727Z,-3.84
2024-01-20T05:01:29.876Z,-3.86
2024-01-20T05:06:32.537Z,-3.87
2024-01-20T05:11:34.697Z,-3.90
2024-01-20T05:16:38.018Z,-3.91
2024-01-20T05:21:45.517Z,-3.92
2024-01-20T05:26:57.464Z,-3.91
2024-01-20T05:32:00.254Z,-3.94
2024-01-20T05:37:16.560Z,-3.95
2024-01-20T05:42:20.047Z,-4.00
2024-01-20T05:47:22.976Z,-4.06
2024-01-20T05:52:33.476Z,-4.09
2024-01-20T06:04:25.122Z,-4.18
2024-01-20T06:09:27.880Z,-4.19
2024-01-20T06:14:34.773Z,-4.19
2024-01-20T06:19:40.931Z,-4.18
2024-01-20T06:24:49.483Z,-4.16
2024-01-20T06:29:51.919Z,-4.12
2024-01-20T06:34:54.193Z,-4.04
2024-01-20T06:47:40.738Z,-3.64
2024-01-20T06:52:43.796Z,-3.46
2024-01-20T06:57:46.401Z,-3.31
2024-01-20T07:02:49.064Z,-3.15
2024-01-20T07:07:51.645Z,-3.03
2024-01-20T07:12:55.513Z,-2.92
2024-01-20T07:18:02.414Z,-2.78
2024-01-20T07:23:05.282Z,-2.65
2024-01-20T07:28:08.253Z,-2.51
2024-01-20T07:33:10.963Z,-2.41
2024-01-20T07:38:16.648Z,-2.29
2024-01-20T07:43:28.168Z,-2.18
2024-01-20T07:48:30.904Z,-2.06
2024-01-20T07:53:33.462Z,-1.92
2024-01-20T07:58:39.528Z,-1.81
2024-01-20T08:03:41.913Z,-1.71
2024-01-20T08:08:56.240Z,-1.54
2024-01-20T08:14:01.664Z,-1.40
2024-01-20T08:19:04.481Z,-1.27
2024-01-20T08:24:10.963Z,-1.18
2024-01-20T08:29:13.964Z,-1.10
2024-01-20T08:34:16.444Z,-0.96
2024-01-20T08:39:20.150Z,-0.88
2024-01-20T08:44:22.229Z,-0.85
2024-01-20T08:49:24.478Z,-0.74
2024-01-20T08:54:26.424Z,-0.62
2024-01-20T08:59:28.556Z,-0.47
2024-01-20T09:04:31.088Z,-0.36
2024-01-20T09:09:35.212Z,-0.29
2024-01-20T09:14:37.882Z,-0.25
2024-01-20T09:19:40.277Z,-0.24
2024-01-20T09:24:42.401Z,-0.20
2024-01-20T09:29:44.256Z,-0.17
2024-01-20T09:34:46.694Z,-0.12
2024-01-20T09:39:48.483Z,-0.06
2024-01-20T09:44:52.219Z,0.08
2024-01-20T09:49:54.884Z,0.38
2024-01-20T09:55:20.479Z,0.92
2024-01-20T10:00:24.984Z,1.55
2024-01-20T10:05:29.932Z,2.02
2024-01-20T10:10:32.995Z,2.32
2024-01-20T10:15:35.500Z,2.61
2024-01-20T10:20:38.409Z,2.81
2024-01-20T10:25:40.286Z,2.93
2024-01-20T10:30:42.821Z,3.07
2024-01-20T10:35:45.114Z,2.99
2024-01-20T10:40:51.608Z,2.81
2024-01-20T10:46:06.046Z,2.67
2024-01-20T10:51:12.714Z,2.47
2024-01-20T10:56:15.671Z,2.23
2024-01-20T11:01:18.955Z,1.97
2024-01-20T11:06:26.421Z,1.74
2024-01-20T11:11:29.889Z,1.62
2024-01-20T11:16:33.544Z,1.42
2024-01-20T11:21:35.666Z,1.24
2024-01-20T11:26:39.275Z,1.14
2024-01-20T11:31:48.084Z,1.07
2024-01-20T11:36:51.212Z,1.05
2024-01-20T11:42:00.879Z,1.07
2024-01-20T11:47:03.430Z,1.09
2024-01-20T11:52:06.026Z,1.15
2024-01-20T11:57:08.437Z,1.14
2024-01-20T12:02:10.492Z,1.03
2024-01-20T12:07:12.917Z,0.96
2024-01-20T12:12:16.024Z,0.90
2024-01-20T12:17:23.314Z,0.85
2024-01-20T12:22:25.324Z,0.83
2024-01-20T12:27:28.485Z,0.82
2024-01-20T12:32:30.753Z,0.79
2024-01-20T12:37:32.605Z,0.74
2024-01-20T12:42:37.655Z,0.68
2024-01-20T12:47:40.867Z,0.63
2024-01-20T12:52:43.780Z,0.61
2024-01-20T12:57:45.963Z,0.59
2024-01-20T13:02:48.044Z,0.60
2024-01-20T13:07:50.445Z,0.60
2024-01-20T13:12:52.286Z,0.56
2024-01-20T13:17:57.183Z,0.51
2024-01-20T13:22:59.505Z,0.46
2024-01-20T13:28:01.775Z,0.44
2024-01-20T13:33:04.797Z,0.42
2024-01-20T13:38:07.124Z,0.41
2024-01-20T13:43:09.517Z,0.40
2024-01-20T13:48:12.223Z,0.37
2024-01-20T13:53:14.823Z,0.32
2024-01-20T13:58:19.954Z,0.25
2024-01-20T14:03:22.465Z,0.17
2024-01-20T14:08:25.169Z,0.09
2024-01-20T14:13:27.340Z,0.05
2024-01-20T14:18:29.947Z,0.01
2024-01-20T14:23:32.036Z,-0.04
2024-01-20T14:28:34.454Z,-0.10
2024-01-20T14:33:45.683Z,-0.19
2024-01-20T14:38:48.251Z,-0.29
2024-01-20T14:43:50.172Z,-0.41
2024-01-20T14:48:52.359Z,-0.49
2024-01-20T14:53:55.262Z,-0.56
2024-01-20T14:58:57.618Z,-0.63
2024-01-20T15:04:00.812Z,-0.75
2024-01-20T15:09:04.206Z,-0.88
2024-01-20T15:14:09.298Z,-1.00
2024-01-20T15:19:11.362Z,-1.08
2024-01-20T15:24:13.436Z,-1.14
2024-01-20T15:29:16.363Z,-1.23
2024-01-20T15:34:19.108Z,-1.34
2024-01-20T15:39:22.844Z,-1.46
2024-01-20T15:44:25.237Z,-1.53
2024-01-20T15:49:27.894Z,-1.57
2024-01-20T15:54:30.251Z,-1.63
2024-01-20T15:59:32.539Z,-1.71
2024-01-20T16:04:36.101Z,-1.78
2024-01-20T16:09:38.186Z,-1.83
2024-01-20T16:14:40.536Z,-1.86
2024-01-20T16:19:42.869Z,-1.95
2024-01-20T16:24:46.300Z,-2.04
2024-01-20T16:29:48.297Z,-2.11
2024-01-20T16:34:50.653Z,-2.14
2024-01-20T16:39:53.009Z,-2.15
2024-01-20T16:44:55.869Z,-2.19
2024-01-20T16:49:58.418Z,-2.24
2024-01-20T16:55:14.128Z,-2.30
2024-01-20T17:00:22.899Z,-2.32
2024-01-20T17:05:25.878Z,-2.33
2024-01-20T17:10:31.546Z,-2.38
2024-01-20T17:15:34.214Z,-2.43
2024-01-20T17:20:36.753Z,-2.45
2024-01-20T17:25:43.870Z,-2.47
2024-01-20T17:30:46.126Z,-2.51
2024-01-20T17:35:54.259Z,-2.54
2024-01-20T17:40:57.454Z,-2.55
2024-01-20T17:45:59.430Z,-2.57
2024-01-20T17:51:01.603Z,-2.61
2024-01-20T17:56:04.829Z,-2.64
2024-01-20T18:01:07.955Z,-2.64
2024-01-20T18:06:18.849Z,-2.66
2024-01-20T18:11:21.775Z,-2.70
2024-01-20T18:16:24.206Z,-2.74
2024-01-20T18:21:26.386Z,-2.76
2024-01-20T18:26:33.153Z,-2.77
2024-01-20T18:31:35.335Z,-2.80
2024-01-20T18:36:40.515Z,-2.83
2024-01-20T18:41:42.767Z,-2.82
2024-01-20T18:46:44.847Z,-2.78
2024-01-20T18:51:47.028Z,-2.77
2024-01-20T18:56:52.923Z,-2.79
2024-01-20T19:01:55.959Z,-2.78
2024-01-20T19:06:58.024Z,-2.75
2024-01-20T19:12:00.311Z,-2.73
2024-01-20T19:17:02.309Z,-2.73
2024-01-20T19:22:04.404Z,-2.77
2024-01-20T19:27:06.615Z,-2.80
2024-01-20T19:32:09.636Z,-2.81
2024-01-20T19:37:12.735Z,-2.80
2024-01-20T19:42:14.944Z,-2.80
2024-01-20T19:47:17.010Z,-2.83
2024-01-20T19:52:19.171Z,-2.89
2024-01-20T19:57:21.224Z,-2.93
2024-01-20T20:02:26.647Z,-2.95
2024-01-20T20:07:30.354Z,-2.92
2024-01-20T20:12:32.826Z,-2.88
2024-01-20T20:17:36.043Z,-2.85
2024-01-20T20:22:38.597Z,-2.81
2024-01-20T20:27:40.617Z,-2.81
2024-01-20T20:32:42.869Z,-2.79
2024-01-20T20:37:45.067Z,-2.72
2024-01-20T20:42:47.364Z,-2.57
2024-01-20T20:47:49.505Z,-2.43
2024-01-20T20:52:51.580Z,-2.34
2024-01-20T20:57:53.637Z,-2.29
2024-01-20T21:02:55.874Z,-2.23
2024-01-20T21:07:58.218Z,-2.20
2024-01-20T21:13:00.979Z,-2.16
2024-01-20T21:18:03.855Z,-2.12
2024-01-20T21:23:06.059Z,-2.08
2024-01-20T21:28:08.443Z,-2.00
2024-01-20T21:33:10.510Z,-1.96
2024-01-20T21:38:14.093Z,-1.94
2024-01-20T21:43:15.940Z,-1.91
2024-01-20T21:48:17.966Z,-1.87
2024-01-20T21:53:22.254Z,-1.82
2024-01-20T21:58:24.853Z,-1.77
2024-01-20T22:03:27.181Z,-1.71
2024-01-20T22:08:32.166Z,-1.62
2024-01-20T22:13:34.109Z,-1.56
2024-01-20T22:18:36.215Z,-1.51
2024-01-20T22:23:38.725Z,-1.50
2024-01-20T22:28:40.775Z,-1.46
2024-01-20T22:33:43.049Z,-1.38
2024-01-20T22:38:47.098Z,-1.33
2024-01-20T22:43:53.410Z,-1.29
2024-01-20T22:48:55.373Z,-1.25
2024-01-20T22:53:57.525Z,-1.23
2024-01-20T22:58:59.656Z,-1.20
2024-01-20T23:04:03.265Z,-1.19
2024-01-20T23:09:07.697Z,-1.16
2024-01-20T23:14:09.840Z,-1.14
2024-01-20T23:19:12.528Z,-1.12
2024-01-20T23:24:14.736Z,-1.10
2024-01-20T23:29:18.176Z,-1.06
2024-01-20T23:34:20.130Z,-1.00
2024-01-20T23:39:22.190Z,-0.93
2024-01-20T23:44:24.424Z,-0.90
2024-01-20T23:49:26.434Z,-0.87
2024-01-20T23:54:28.619Z,-0.82
2024-01-20T23:59:30.588Z,-0.75
